Time;durP1;ratioP1;P1;durP2;ratioP2;P2;SDS_P1;SDS_P2;PMS_P1;PMS_P2;Temp;Humidity;BMP_temperature;BMP_pressure;BME280_temperature;BME280_humidity;BME280_pressure;Samples;Min_cycle;Max_cycle;Signal;HPM_P1;HPM_P2
2022/03/09 00:00:22;;;;;;;14.73;7.43;;;;;;;-4.24;100.00;98745.00;5132650;27;20059;-61
2022/03/09 00:02:48;;;;;;;17.33;7.85;;;;;;;-4.27;100.00;98746.34;5133493;28;20138;-61
2022/03/09 00:05:15;;;;;;;17.30;6.97;;;;;;;-4.19;100.00;98744.19;5133398;28;20065;-61
2022/03/09 00:07:42;;;;;;;20.85;7.25;;;;;;;-4.15;100.00;98746.03;5133410;28;20138;-62
2022/03/09 00:10:09;;;;;;;19.67;7.85;;;;;;;-4.12;100.00;98750.03;5132936;28;20072;-61
2022/03/09 00:12:36;;;;;;;16.02;6.88;;;;;;;-4.09;100.00;98742.25;5133229;28;20051;-62
2022/03/09 00:15:02;;;;;;;23.45;7.10;;;;;;;-4.06;100.00;98744.34;5133147;28;20051;-61
2022/03/09 00:17:29;;;;;;;17.67;8.30;;;;;;;-4.08;100.00;98748.38;5133100;28;20047;-61
2022/03/09 00:19:55;;;;;;;20.30;8.50;;;;;;;-4.20;100.00;98747.94;5133195;28;20111;-61
2022/03/09 00:22:22;;;;;;;20.73;8.60;;;;;;;-4.19;100.00;98742.31;5133326;28;20452;-62
2022/03/09 00:24:49;;;;;;;18.50;7.18;;;;;;;-4.16;100.00;98740.97;5133431;28;20051;-61
2022/03/09 00:27:15;;;;;;;16.30;7.93;;;;;;;-4.14;100.00;98744.13;5133175;28;20051;-61
2022/03/09 00:29:41;;;;;;;16.50;6.78;;;;;;;-4.13;100.00;98743.88;5133261;28;20053;-61
2022/03/09 00:32:08;;;;;;;19.27;7.57;;;;;;;-4.04;100.00;98736.81;5132718;28;20510;-61
2022/03/09 00:34:34;;;;;;;17.52;6.55;;;;;;;-4.06;100.00;98735.53;5133353;28;20425;-61
2022/03/09 00:37:02;;;;;;;13.10;6.88;;;;;;;-4.05;100.00;98739.78;5132793;28;20054;-61
2022/03/09 00:39:29;;;;;;;18.77;6.90;;;;;;;-3.98;100.00;98744.84;5132850;28;20051;-61
2022/03/09 00:41:55;;;;;;;20.15;7.82;;;;;;;-4.06;100.00;98741.69;5132846;28;20502;-61
2022/03/09 00:44:22;;;;;;;30.73;14.00;;;;;;;-4.12;100.00;98742.78;5132649;28;20532;-61
2022/03/09 00:46:48;;;;;;;42.55;17.70;;;;;;;-4.10;100.00;98753.22;5132734;28;20047;-61
2022/03/09 00:49:15;;;;;;;18.75;7.78;;;;;;;-4.04;100.00;98744.88;5132564;28;20429;-61
2022/03/09 00:51:41;;;;;;;19.48;7.82;;;;;;;-4.09;100.00;98746.78;5132558;28;20055;-61
2022/03/09 00:54:08;;;;;;;24.75;11.57;;;;;;;-4.07;100.00;98747.28;5132585;28;20058;-61
2022/03/09 00:56:35;;;;;;;34.65;14.82;;;;;;;-3.99;100.00;98749.41;5132538;28;20087;-61
2022/03/09 00:59:01;;;;;;;12.02;6.63;;;;;;;-4.06;100.00;98735.53;5132421;28;20099;-61
2022/03/09 01:01:27;;;;;;;14.63;7.10;;;;;;;-4.10;100.00;98740.66;5132533;28;20051;-61
2022/03/09 01:03:53;;;;;;;15.82;6.60;;;;;;;-4.14;100.00;98747.63;5132422;28;20142;-61
2022/03/09 01:06:20;;;;;;;18.38;6.57;;;;;;;-4.18;100.00;98753.81;5132588;28;20430;-61
2022/03/09 01:08:46;;;;;;;10.70;5.70;;;;;;;-4.27;100.00;98751.72;5132353;28;20078;-61
2022/03/09 01:11:13;;;;;;;13.10;6.03;;;;;;;-4.40;100.00;98752.31;5131520;27;20054;-62
2022/03/09 01:13:40;;;;;;;16.52;6.13;;;;;;;-4.51;100.00;98753.47;5132153;28;20050;-62
2022/03/09 01:16:06;;;;;;;9.45;5.32;;;;;;;-4.56;100.00;98748.97;5132544;28;20054;-61
2022/03/09 01:18:32;;;;;;;13.52;5.13;;;;;;;-4.61;100.00;98753.53;5131787;28;20474;-61
2022/03/09 01:20:59;;;;;;;8.73;4.50;;;;;;;-4.64;100.00;98751.41;5131956;28;20047;-61
2022/03/09 01:23:25;;;;;;;9.20;4.13;;;;;;;-4.73;100.00;98753.84;5132143;28;20047;-61
2022/03/09 01:25:52;;;;;;;7.55;4.50;;;;;;;-4.80;100.00;98746.13;5132050;28;20147;-61
2022/03/09 01:28:18;;;;;;;7.88;4.82;;;;;;;-4.91;100.00;98746.44;5132164;28;20047;-61
2022/03/09 01:30:45;;;;;;;12.00;4.72;;;;;;;-5.06;100.00;98755.31;5131575;28;20083;-61
2022/03/09 01:33:12;;;;;;;10.77;4.70;;;;;;;-5.14;100.00;98748.66;5132094;28;20073;-61
2022/03/09 01:35:38;;;;;;;10.90;4.90;;;;;;;-5.17;100.00;98748.38;5131928;28;20584;-61
2022/03/09 01:38:04;;;;;;;10.57;4.20;;;;;;;-5.31;100.00;98746.28;5131694;28;20043;-61
2022/03/09 01:40:30;;;;;;;10.35;4.00;;;;;;;-5.39;100.00;98746.84;5131839;28;20093;-61
2022/03/09 01:42:56;;;;;;;8.23;3.83;;;;;;;-5.47;100.00;98755.41;5132040;28;20047;-61
2022/03/09 01:45:24;;;;;;;8.43;3.92;;;;;;;-5.52;100.00;98752.75;5131655;28;20051;-61
2022/03/09 01:47:51;;;;;;;9.75;4.85;;;;;;;-5.64;100.00;98765.56;5131814;28;20403;-61
2022/03/09 01:50:18;;;;;;;10.23;4.15;;;;;;;-5.70;100.00;98767.44;5131751;28;20079;-61
2022/03/09 01:52:44;;;;;;;7.63;4.15;;;;;;;-5.67;100.00;98781.06;5131601;28;20055;-61
2022/03/09 01:55:11;;;;;;;9.05;4.07;;;;;;;-5.76;100.00;98782.69;5131828;28;20051;-61
2022/03/09 01:57:40;;;;;;;7.97;4.28;;;;;;;-5.81;100.00;98792.56;5131591;28;20111;-61
2022/03/09 02:00:07;;;;;;;8.23;3.83;;;;;;;-5.89;100.00;98798.44;5131487;28;20047;-61
2022/03/09 02:02:34;;;;;;;7.07;4.00;;;;;;;-6.04;100.00;98805.38;5113520;28;20130;-61
2022/03/09 02:05:01;;;;;;;9.85;4.25;;;;;;;-6.02;100.00;98815.78;5131471;28;20083;-61
2022/03/09 02:10:09;;;;;;;8.82;4.28;;;;;;;-6.12;100.00;98832.59;5130549;28;20054;-61
2022/03/09 02:12:35;;;;;;;11.43;5.07;;;;;;;-6.13;100.00;98844.34;5131787;28;20051;-61
2022/03/09 02:15:01;;;;;;;7.10;4.28;;;;;;;-6.24;100.00;98851.47;5131181;28;20134;-61
2022/03/09 02:17:29;;;;;;;10.98;5.20;;;;;;;-6.29;100.00;98861.38;5131275;28;20055;-61
2022/03/09 02:19:57;;;;;;;10.93;3.95;;;;;;;-6.36;100.00;98866.13;5131113;28;20486;-61
2022/03/09 02:22:30;;;;;;;12.05;4.47;;;;;;;-6.46;100.00;98885.56;5130020;27;20051;-61
2022/03/09 02:24:57;;;;;;;10.35;4.72;;;;;;;-6.46;100.00;98913.03;5131168;28;20059;-61
2022/03/09 02:27:23;;;;;;;11.23;4.68;;;;;;;-6.49;100.00;98923.44;5131088;28;20498;-61
2022/03/09 02:29:50;;;;;;;10.15;5.07;;;;;;;-6.48;100.00;98941.81;5131074;28;20086;-61
2022/03/09 02:32:17;;;;;;;8.68;4.63;;;;;;;-6.48;100.00;98957.81;5130922;28;20138;-61
2022/03/09 02:34:43;;;;;;;7.57;4.30;;;;;;;-6.58;100.00;98978.31;5131040;28;20058;-61
2022/03/09 02:37:10;;;;;;;10.43;5.05;;;;;;;-6.65;100.00;98984.66;5130999;28;20050;-61
2022/03/09 02:39:37;;;;;;;7.28;4.20;;;;;;;-6.72;100.00;99012.59;5130944;28;20078;-61
2022/03/09 02:42:05;;;;;;;11.90;4.80;;;;;;;-6.68;100.00;99043.03;5130757;28;20058;-61
2022/03/09 02:44:32;;;;;;;9.63;4.75;;;;;;;-6.67;100.00;99064.09;5131016;28;20133;-61
2022/03/09 02:46:59;;;;;;;8.60;4.32;;;;;;;-6.65;100.00;99087.84;5130883;28;20147;-61
2022/03/09 02:49:25;;;;;;;11.10;4.60;;;;;;;-6.65;100.00;99098.50;5130985;28;20043;-61
2022/03/09 02:51:52;;;;;;;10.82;5.20;;;;;;;-6.67;100.00;99129.94;5130596;28;20055;-62
2022/03/09 02:54:18;;;;;;;13.80;4.88;;;;;;;-6.70;100.00;99149.91;5130880;28;20047;-61
2022/03/09 02:56:45;;;;;;;9.30;4.03;;;;;;;-6.76;100.00;99164.28;5130673;28;20086;-61
2022/03/09 02:59:12;;;;;;;12.38;5.50;;;;;;;-6.78;100.00;99186.91;5130615;28;20134;-61
2022/03/09 03:01:38;;;;;;;12.27;5.40;;;;;;;-6.77;100.00;99213.28;5130649;28;20054;-61
2022/03/09 03:04:04;;;;;;;13.05;5.20;;;;;;;-6.80;100.00;99229.78;5130551;28;20078;-61
2022/03/09 03:06:31;;;;;;;9.68;4.72;;;;;;;-6.82;100.00;99247.09;5130798;28;20866;-61
2022/03/09 03:08:57;;;;;;;9.27;4.65;;;;;;;-6.82;100.00;99279.91;5130998;28;20490;-61
2022/03/09 03:11:23;;;;;;;10.50;5.25;;;;;;;-6.87;100.00;99291.28;5130665;28;20467;-61
2022/03/09 03:13:50;;;;;;;10.55;5.40;;;;;;;-6.87;100.00;99314.47;5130587;28;20058;-61
2022/03/09 03:16:17;;;;;;;11.63;5.35;;;;;;;-6.88;100.00;99335.00;5130603;28;20598;-61
2022/03/09 03:18:44;;;;;;;11.38;5.78;;;;;;;-6.93;100.00;99348.25;5129898;28;20426;-61
2022/03/09 03:21:10;;;;;;;13.82;6.60;;;;;;;-6.90;100.00;99365.59;5130705;28;20202;-61
2022/03/09 03:23:37;;;;;;;16.80;6.05;;;;;;;-6.96;100.00;99369.28;5130504;28;20051;-61
2022/03/09 03:26:05;;;;;;;11.25;5.40;;;;;;;-7.03;100.00;99373.94;5130262;28;20082;-61
2022/03/09 03:28:32;;;;;;;12.98;7.13;;;;;;;-7.04;100.00;99404.31;5130358;28;20082;-61
2022/03/09 03:30:59;;;;;;;13.98;5.47;;;;;;;-7.09;100.00;99418.38;5130083;28;20047;-61
2022/03/09 03:33:25;;;;;;;10.45;5.72;;;;;;;-7.06;100.00;99438.38;5130189;27;20049;-61
2022/03/09 03:35:52;;;;;;;18.23;6.63;;;;;;;-7.08;100.00;99467.94;5133788;28;20136;-61
2022/03/09 03:38:19;;;;;;;16.23;6.57;;;;;;;-7.06;100.00;99481.84;5134142;28;20414;-61
2022/03/09 03:40:46;;;;;;;13.32;6.13;;;;;;;-7.03;100.00;99494.69;5133941;28;20523;-61
2022/03/09 03:43:12;;;;;;;15.50;5.88;;;;;;;-7.14;100.00;99491.03;5133873;28;20143;-61
2022/03/09 03:45:39;;;;;;;11.38;5.60;;;;;;;-7.19;100.00;99501.63;5133615;28;20422;-61
2022/03/09 03:48:06;;;;;;;15.10;6.63;;;;;;;-7.31;100.00;99505.38;5133771;28;20127;-61
2022/03/09 03:50:33;;;;;;;14.68;5.75;;;;;;;-7.30;100.00;99538.97;5133531;28;20058;-61
2022/03/09 03:52:59;;;;;;;14.05;6.53;;;;;;;-7.30;100.00;99558.41;5133722;28;20047;-61
2022/03/09 03:55:25;;;;;;;12.02;5.88;;;;;;;-7.34;100.00;99579.38;5133411;28;20078;-61
2022/03/09 03:57:52;;;;;;;13.60;6.63;;;;;;;-7.38;100.00;99591.56;5133526;28;20050;-61
2022/03/09 04:00:19;;;;;;;16.02;6.45;;;;;;;-7.38;100.00;99612.06;5133346;28;20499;-61
2022/03/09 04:02:45;;;;;;;15.05;6.82;;;;;;;-7.38;100.00;99620.06;5133754;28;20557;-61
2022/03/09 04:05:12;;;;;;;17.25;7.30;;;;;;;-7.38;100.00;99636.03;5133291;28;20083;-61
2022/03/09 04:07:38;;;;;;;16.23;6.38;;;;;;;-7.38;100.00;99647.50;5133479;28;20202;-61
2022/03/09 04:10:05;;;;;;;16.73;6.07;;;;;;;-7.40;100.00;99656.75;5133265;28;20054;-61
2022/03/09 04:12:31;;;;;;;15.70;5.78;;;;;;;-7.49;100.00;99663.53;5133242;28;20057;-61
2022/03/09 04:14:58;;;;;;;15.00;6.05;;;;;;;-7.53;100.00;99675.66;5133336;28;20133;-61
2022/03/09 04:17:25;;;;;;;13.18;6.35;;;;;;;-7.50;100.00;99694.66;5133348;28;20482;-61
2022/03/09 04:19:51;;;;;;;14.73;6.22;;;;;;;-7.54;100.00;99701.50;5132719;28;20104;-61
2022/03/09 04:22:18;;;;;;;15.90;6.50;;;;;;;-7.58;100.00;99705.66;5133149;28;20047;-61
2022/03/09 04:24:44;;;;;;;20.45;6.82;;;;;;;-7.60;100.00;99713.91;5133066;28;20402;-61
2022/03/09 04:27:10;;;;;;;22.23;6.57;;;;;;;-7.58;100.00;99726.97;5132954;28;20126;-61
2022/03/09 04:29:37;;;;;;;26.05;8.20;;;;;;;-7.66;100.00;99733.47;5132709;28;20051;-61
2022/03/09 04:32:04;;;;;;;12.15;6.35;;;;;;;-7.71;100.00;99735.19;5132799;28;20142;-61
2022/03/09 04:34:30;;;;;;;17.75;7.07;;;;;;;-7.70;100.00;99758.91;5132980;28;20062;-61
2022/03/09 04:36:56;;;;;;;11.75;6.30;;;;;;;-7.70;100.00;99763.41;5132982;28;20146;-61
2022/03/09 04:39:23;;;;;;;16.67;7.28;;;;;;;-7.65;100.00;99774.19;5132939;28;20182;-61
2022/03/09 04:41:50;;;;;;;18.85;7.35;;;;;;;-7.63;100.00;99796.06;5132861;28;20561;-61
2022/03/09 04:44:17;;;;;;;20.42;6.65;;;;;;;-7.65;100.00;99782.19;5132756;28;20085;-60
2022/03/09 04:46:43;;;;;;;23.98;8.18;;;;;;;-7.64;100.00;99799.78;5131261;27;20496;-61
2022/03/09 04:49:09;;;;;;;17.45;6.85;;;;;;;-7.64;100.00;99797.91;5132477;28;20051;-61
2022/03/09 04:51:36;;;;;;;18.35;6.88;;;;;;;-7.64;100.00;99803.25;5132335;28;20558;-61
2022/03/09 04:54:04;;;;;;;24.15;8.27;;;;;;;-7.62;100.00;99819.81;5132539;28;20054;-61
2022/03/09 04:56:31;;;;;;;42.88;9.02;;;;;;;-7.59;100.00;99822.03;5132709;28;20138;-60
2022/03/09 04:58:57;;;;;;;19.85;8.15;;;;;;;-7.58;100.00;99818.31;5132602;28;20051;-61
2022/03/09 05:01:23;;;;;;;24.20;7.88;;;;;;;-7.57;100.00;99817.25;5132594;28;20057;-61
2022/03/09 05:03:49;;;;;;;21.50;7.45;;;;;;;-7.47;100.00;99824.69;5132112;28;20058;-56
2022/03/09 05:06:16;;;;;;;53.08;8.70;;;;;;;-7.45;100.00;99830.59;5131597;27;20142;-57
2022/03/09 05:08:42;;;;;;;43.50;9.00;;;;;;;-7.39;100.00;99837.66;5114270;28;20092;-60
2022/03/09 05:11:09;;;;;;;40.20;7.88;;;;;;;-7.25;100.00;99848.09;5127328;28;20461;-60
2022/03/09 05:13:35;;;;;;;32.65;8.63;;;;;;;-7.10;100.00;99856.44;5117608;28;20048;-59
2022/03/09 05:16:05;;;;;;;31.98;7.70;;;;;;;-6.93;100.00;99880.53;5111556;28;20047;-59
2022/03/09 05:18:32;;;;;;;20.23;6.82;;;;;;;-6.81;100.00;99865.34;5110334;28;20430;-59
2022/03/09 05:20:58;;;;;;;29.67;8.23;;;;;;;-6.25;100.00;99897.72;5111376;28;20051;-58
2022/03/09 05:23:24;;;;;;;18.85;8.27;;;;;;;-5.79;100.00;99917.25;5111398;28;20502;-60
2022/03/09 05:25:51;;;;;;;23.35;7.45;;;;;;;-5.32;100.00;99879.59;5111482;28;20498;-60
2022/03/09 05:28:17;;;;;;;23.02;6.93;;;;;;;-4.56;100.00;99845.94;5113900;27;20503;-62
2022/03/09 05:30:44;;;;;;;17.00;7.00;;;;;;;-3.23;100.00;99699.75;5113313;28;20051;-61
2022/03/09 05:33:10;;;;;;;12.52;5.68;;;;;;;-1.85;100.00;99387.50;5127540;28;20058;-61
2022/03/09 05:35:38;;;;;;;13.40;6.10;;;;;;;-0.88;100.00;98948.88;5132219;28;20054;-60
2022/03/09 05:38:05;;;;;;;16.33;6.53;;;;;;;-0.21;100.00;98872.28;5132056;28;20051;-60
2022/03/09 05:40:31;;;;;;;14.88;6.25;;;;;;;0.23;100.00;98966.78;5131538;28;20138;-61
2022/03/09 05:42:57;;;;;;;14.05;6.10;;;;;;;0.52;100.00;99064.63;5111144;28;20086;-60
2022/03/09 05:45:24;;;;;;;11.90;5.85;;;;;;;1.02;100.00;99138.31;5110828;28;20518;-60
2022/03/09 05:47:51;;;;;;;14.07;5.07;;;;;;;1.42;100.00;99192.56;5111249;28;20079;-60
2022/03/09 05:50:18;;;;;;;16.35;5.97;;;;;;;1.81;100.00;99242.53;5110991;28;20094;-61
2022/03/09 05:52:44;;;;;;;10.57;4.88;;;;;;;2.01;100.00;99271.81;5110861;28;20070;-60
2022/03/09 05:55:11;;;;;;;6.22;4.47;;;;;;;2.03;100.00;99295.81;5111002;28;20063;-59
2022/03/09 05:57:37;;;;;;;11.02;4.82;;;;;;;1.88;100.00;99316.69;5110600;28;20082;-60
2022/03/09 06:00:06;;;;;;;10.25;4.50;;;;;;;2.26;100.00;99326.41;5111093;28;20410;-60
2022/03/09 06:02:32;;;;;;;10.75;4.57;;;;;;;2.44;100.00;99332.78;5110540;28;20086;-60
2022/03/09 06:04:59;;;;;;;13.32;4.53;;;;;;;2.95;100.00;99340.44;5110782;28;20048;-62
2022/03/09 06:07:26;;;;;;;12.75;4.38;;;;;;;3.41;100.00;99349.28;5110838;28;20142;-60
2022/03/09 06:09:52;;;;;;;15.35;4.95;;;;;;;3.68;100.00;99365.31;5110754;28;20142;-62
2022/03/09 06:12:18;;;;;;;16.20;5.05;;;;;;;3.74;99.60;99369.50;5110695;28;20056;-60
2022/03/09 06:14:45;;;;;;;11.48;4.28;;;;;;;3.84;98.52;99386.59;5110389;28;20048;-59
2022/03/09 06:17:11;;;;;;;6.22;4.40;;;;;;;3.92;97.53;99386.63;5110790;28;20048;-60
2022/03/09 06:19:37;;;;;;;11.68;4.68;;;;;;;4.06;96.92;99389.19;5110069;28;20047;-60
2022/03/09 06:22:04;;;;;;;10.52;4.63;;;;;;;4.51;94.49;99399.81;5116144;28;20196;-61
2022/03/09 06:24:31;;;;;;;7.93;4.80;;;;;;;4.51;91.84;99405.25;5125302;28;20058;-61
2022/03/09 06:26:57;;;;;;;9.07;4.68;;;;;;;4.82;90.93;99407.00;5130983;28;20047;-61
2022/03/09 06:29:23;;;;;;;14.57;4.15;;;;;;;5.09;88.70;99417.50;5130678;28;20074;-60
2022/03/09 06:31:49;;;;;;;10.77;4.78;;;;;;;5.27;87.39;99422.94;5127048;28;20062;-59
2022/03/09 06:34:16;;;;;;;10.43;4.63;;;;;;;5.24;85.19;99429.81;5110044;28;20058;-59
2022/03/09 06:36:44;;;;;;;13.27;4.88;;;;;;;5.58;84.02;99431.63;5110025;28;20086;-59
2022/03/09 06:39:12;;;;;;;14.65;4.65;;;;;;;5.56;84.92;99442.03;5109992;28;20083;-54
2022/03/09 06:41:40;;;;;;;14.00;4.78;;;;;;;5.47;84.17;99444.00;5126278;28;20108;-55
2022/03/09 06:44:06;;;;;;;13.02;5.00;;;;;;;5.54;83.51;99449.72;5130856;28;20059;-60
2022/03/09 06:46:32;;;;;;;15.77;4.00;;;;;;;5.35;81.68;99452.00;5130601;28;20081;-59
2022/03/09 06:48:59;;;;;;;25.58;6.07;;;;;;;5.60;80.60;99451.16;5130328;28;20098;-61
2022/03/09 06:51:25;;;;;;;13.93;5.15;;;;;;;5.98;81.37;99458.56;5116329;28;20054;-59
2022/03/09 06:53:51;;;;;;;17.15;4.53;;;;;;;6.00;78.58;99461.78;5110214;28;20048;-59
2022/03/09 06:56:19;;;;;;;10.77;3.80;;;;;;;5.52;77.30;99468.28;5110264;28;20141;-58
2022/03/09 06:58:45;;;;;;;12.32;4.60;;;;;;;5.68;76.50;99476.72;5109725;28;20073;-60
2022/03/09 07:01:12;;;;;;;10.00;4.30;;;;;;;5.60;78.27;99481.09;5121787;28;20058;-59
2022/03/09 07:03:38;;;;;;;7.30;4.25;;;;;;;5.60;76.18;99480.28;5130617;28;20525;-59
2022/03/09 07:06:05;;;;;;;14.27;4.57;;;;;;;5.82;76.97;99481.97;5130886;28;20129;-59
2022/03/09 07:08:31;;;;;;;15.05;5.10;;;;;;;5.94;76.56;99479.41;5131622;27;20445;-61
2022/03/09 07:10:58;;;;;;;17.05;5.10;;;;;;;5.91;75.33;99488.19;5125374;27;20495;-57
2022/03/09 07:13:25;;;;;;;17.30;5.68;;;;;;;6.19;76.64;99474.16;5117501;27;20048;-61
2022/03/09 07:15:52;;;;;;;12.75;4.90;;;;;;;5.73;72.61;99498.34;5117825;27;20051;-59
2022/03/09 07:18:18;;;;;;;12.10;4.45;;;;;;;5.34;74.26;99493.91;5116034;28;20093;-61
2022/03/09 07:20:45;;;;;;;10.10;4.45;;;;;;;4.47;75.91;99497.38;5123442;27;20054;-60
2022/03/09 07:23:12;;;;;;;14.48;5.25;;;;;;;4.39;79.85;99486.50;5136690;27;20530;-56
2022/03/09 07:25:40;;;;;;;17.15;4.88;;;;;;;4.08;83.74;99484.66;5136712;27;20089;-55
2022/03/09 07:28:06;;;;;;;8.00;4.47;;;;;;;3.92;81.45;99486.19;5136745;27;20070;-58
2022/03/09 07:30:35;;;;;;;12.88;4.32;;;;;;;3.16;83.27;99483.50;5131002;27;20134;-60
2022/03/09 07:33:01;;;;;;;13.10;4.65;;;;;;;4.07;84.30;99474.13;5116026;28;20526;-57
2022/03/09 07:35:27;;;;;;;9.32;4.05;;;;;;;3.82;81.99;99478.31;5116076;28;20094;-57
2022/03/09 07:37:53;;;;;;;10.20;5.18;;;;;;;3.51;83.46;99474.50;5116129;28;20051;-59
2022/03/09 07:40:20;;;;;;;17.95;3.70;;;;;;;3.74;82.50;99474.47;5125746;27;20141;-59
2022/03/09 07:42:47;;;;;;;64.00;7.22;;;;;;;3.53;84.11;99485.84;5157385;27;20054;-60
2022/03/09 07:45:13;;;;;;;12.98;4.38;;;;;;;3.05;84.25;99491.88;5147006;27;20422;-58
2022/03/09 07:47:40;;;;;;;6.22;3.60;;;;;;;2.52;85.09;99489.00;5136145;27;20418;-58
2022/03/09 07:50:07;;;;;;;8.05;3.53;;;;;;;1.46;90.40;99481.84;5136160;27;20168;-59
2022/03/09 07:52:34;;;;;;;4.18;2.80;;;;;;;1.34;95.25;99480.41;5136173;27;20051;-60
2022/03/09 07:55:01;;;;;;;12.70;2.80;;;;;;;1.37;93.84;99479.84;5134968;27;20059;-60
2022/03/09 07:57:27;;;;;;;4.00;2.45;;;;;;;0.87;97.98;99471.44;5124118;27;20142;-58
2022/03/09 07:59:53;;;;;;;6.55;2.97;;;;;;;0.83;99.84;99464.22;5124285;27;20052;-59
2022/03/09 08:02:20;;;;;;;6.05;3.30;;;;;;;0.55;100.00;99447.88;5115799;28;20144;-59
2022/03/09 08:04:47;;;;;;;5.88;3.40;;;;;;;0.67;100.00;99444.75;5116049;28;20051;-59
2022/03/09 08:07:13;;;;;;;11.60;3.40;;;;;;;0.87;100.00;99439.06;5116113;28;20154;-60
2022/03/09 08:09:39;;;;;;;5.25;3.05;;;;;;;0.52;100.00;99447.66;5115811;28;20052;-59
2022/03/09 08:12:06;;;;;;;59.42;6.40;;;;;;;0.22;100.00;99444.28;5115671;28;20051;-59
2022/03/09 08:14:32;;;;;;;9.00;3.45;;;;;;;0.15;100.00;99431.16;5115806;28;20047;-56
2022/03/09 08:16:58;;;;;;;5.53;3.15;;;;;;;0.44;100.00;99427.56;5115625;27;20365;-59
2022/03/09 08:19:25;;;;;;;6.53;3.03;;;;;;;0.39;100.00;99438.41;5114850;28;20059;-58
2022/03/09 08:21:52;;;;;;;8.30;3.28;;;;;;;0.66;100.00;99416.16;5112034;28;20083;-59
2022/03/09 08:24:18;;;;;;;7.93;3.67;;;;;;;0.59;100.00;99431.91;5112130;28;20066;-58
2022/03/09 08:26:45;;;;;;;7.60;2.97;;;;;;;0.78;100.00;99435.41;5112429;28;20052;-60
2022/03/09 08:29:11;;;;;;;7.07;3.38;;;;;;;0.97;100.00;99439.97;5123883;27;20138;-60
2022/03/09 08:31:38;;;;;;;13.23;4.03;;;;;;;0.85;100.00;99451.22;5111725;28;20091;-58
2022/03/09 08:34:04;;;;;;;9.40;3.40;;;;;;;0.85;100.00;99446.63;5134482;27;20047;-59
2022/03/09 08:36:30;;;;;;;9.63;3.33;;;;;;;0.89;100.00;99461.13;5153424;27;20125;-59
2022/03/09 08:38:57;;;;;;;16.10;3.40;;;;;;;0.67;100.00;99450.97;5153168;27;20047;-59
2022/03/09 08:41:25;;;;;;;8.98;3.58;;;;;;;0.75;100.00;99452.19;5153046;27;20070;-60
2022/03/09 08:43:51;;;;;;;8.82;3.03;;;;;;;0.92;100.00;99457.06;5125970;27;20051;-60
2022/03/09 08:46:18;;;;;;;6.88;3.17;;;;;;;0.77;100.00;99462.69;5121423;27;20506;-59
2022/03/09 08:48:45;;;;;;;8.38;2.90;;;;;;;0.65;100.00;99474.72;5127218;28;20058;-59
2022/03/09 08:51:12;;;;;;;4.53;2.83;;;;;;;0.56;100.00;99472.97;5121544;27;20085;-59
2022/03/09 08:53:38;;;;;;;5.38;2.50;;;;;;;0.56;100.00;99465.66;5116734;27;20089;-58
2022/03/09 08:56:07;;;;;;;11.23;2.90;;;;;;;0.91;100.00;99466.25;5122752;28;20505;-57
2022/03/09 08:58:34;;;;;;;3.70;2.08;;;;;;;0.79;100.00;99482.09;5111529;28;20048;-58
2022/03/09 09:01:00;;;;;;;5.07;2.55;;;;;;;0.88;100.00;99478.44;5111644;28;20134;-59
2022/03/09 09:03:26;;;;;;;3.05;2.30;;;;;;;1.13;100.00;99482.66;5111564;28;20503;-59
2022/03/09 09:05:52;;;;;;;28.48;3.70;;;;;;;0.58;97.71;99493.16;5124959;28;20073;-58
2022/03/09 09:08:19;;;;;;;3.60;2.42;;;;;;;0.15;99.65;99501.25;5132162;28;20109;-59
2022/03/09 09:10:45;;;;;;;3.05;2.28;;;;;;;0.26;100.00;99490.34;5132063;28;20525;-59
2022/03/09 09:13:12;;;;;;;17.52;2.42;;;;;;;-0.11;100.00;99489.16;5131889;28;20055;-59
2022/03/09 09:15:38;;;;;;;3.60;2.03;;;;;;;-0.25;100.00;99484.44;5131918;28;20093;-58
2022/03/09 09:18:06;;;;;;;3.42;2.17;;;;;;;-0.57;100.00;99481.53;5122615;27;20047;-60
2022/03/09 09:20:33;;;;;;;4.53;2.55;;;;;;;-0.50;100.00;99466.66;5116688;27;20118;-60
2022/03/09 09:23:00;;;;;;;2.78;2.38;;;;;;;-0.43;100.00;99462.81;5121595;27;20101;-58
2022/03/09 09:25:27;;;;;;;2.80;2.10;;;;;;;0.69;100.00;99456.06;5127156;28;20048;-58
2022/03/09 09:27:55;;;;;;;3.25;2.20;;;;;;;0.67;100.00;99485.25;5120322;28;20082;-58
2022/03/09 09:30:23;;;;;;;4.32;2.55;;;;;;;1.04;98.54;99491.72;5121549;28;20090;-61
2022/03/09 09:32:50;;;;;;;7.38;2.38;;;;;;;0.44;99.80;99511.97;5117387;27;20473;-57
2022/03/09 09:35:17;;;;;;;3.92;1.90;;;;;;;-0.08;100.00;99519.03;5121450;28;20434;-59
2022/03/09 09:37:45;;;;;;;6.75;2.08;;;;;;;-0.30;100.00;99484.50;5127758;28;20559;-58
2022/03/09 09:40:13;;;;;;;4.75;1.80;;;;;;;-0.73;100.00;99489.75;5129752;28;20059;-58
2022/03/09 09:42:39;;;;;;;2.38;1.80;;;;;;;-0.31;100.00;99472.09;5121686;28;20488;-59
2022/03/09 09:45:07;;;;;;;2.15;1.80;;;;;;;0.60;100.00;99461.31;5126660;28;20055;-58
2022/03/09 09:47:34;;;;;;;3.08;2.00;;;;;;;0.78;99.50;99475.91;5117873;28;20081;-59
2022/03/09 09:50:02;;;;;;;4.72;2.28;;;;;;;0.81;97.27;99498.81;5121122;28;20317;-58
2022/03/09 09:52:30;;;;;;;1.95;1.85;;;;;;;0.96;95.64;99482.38;5123469;28;20509;-59
2022/03/09 09:54:59;;;;;;;4.30;2.00;;;;;;;1.16;94.25;99492.84;5129883;28;20502;-59
2022/03/09 09:57:28;;;;;;;7.18;2.00;;;;;;;1.23;93.21;99497.88;5126567;28;20051;-58
2022/03/09 09:59:55;;;;;;;3.88;2.00;;;;;;;1.41;91.63;99510.56;5129878;28;20425;-59
2022/03/09 10:02:21;;;;;;;4.13;1.85;;;;;;;1.67;91.88;99510.13;5128895;28;20137;-60
2022/03/09 10:04:50;;;;;;;7.63;2.00;;;;;;;1.48;88.84;99514.78;5127687;27;20873;-59
2022/03/09 10:07:16;;;;;;;2.90;2.22;;;;;;;1.02;91.77;99515.50;5122237;27;20094;-59
2022/03/09 10:09:43;;;;;;;5.70;2.70;;;;;;;1.28;92.28;99507.81;5128081;28;20047;-60
2022/03/09 10:12:10;;;;;;;5.57;2.28;;;;;;;0.73;91.31;99521.84;5126181;28;20148;-59
2022/03/09 10:14:45;;;;;;;3.15;2.30;;;;;;;0.14;94.30;99515.03;5120079;28;20069;-59
2022/03/09 10:17:13;;;;;;;4.18;2.47;;;;;;;0.30;95.97;99513.78;5121304;27;20146;-59
2022/03/09 10:19:46;;;;;;;4.43;2.40;;;;;;;0.84;100.00;99499.03;5122581;27;20152;-60
2022/03/09 10:22:29;;;;;;;3.55;2.70;;;;;;;1.27;95.33;99490.81;5122565;27;20055;-60
2022/03/09 10:24:57;;;;;;;6.88;2.38;;;;;;;1.31;94.10;99509.94;5122020;28;20055;-60
2022/03/09 10:27:38;;;;;;;4.47;2.40;;;;;;;1.33;92.03;99513.13;5123676;28;20093;-60
2022/03/09 10:30:07;;;;;;;5.78;2.30;;;;;;;1.50;95.87;99505.28;5123403;28;20047;-58
2022/03/09 10:32:47;;;;;;;21.08;2.63;;;;;;;1.34;92.27;99507.44;5114068;28;20051;-60
2022/03/09 10:35:15;;;;;;;6.45;2.50;;;;;;;1.08;94.32;99501.63;5123904;27;20051;-59
2022/03/09 10:37:46;;;;;;;3.95;2.33;;;;;;;0.71;92.82;99513.25;5110347;28;20051;-61
2022/03/09 10:40:14;;;;;;;6.90;2.15;;;;;;;0.61;100.00;99505.28;5110039;28;20055;-60
2022/03/09 10:42:41;;;;;;;4.47;2.47;;;;;;;0.93;100.00;99504.53;5116347;27;20073;-58
2022/03/09 10:45:09;;;;;;;15.52;3.20;;;;;;;1.20;99.79;99500.38;5129252;28;20134;-58
2022/03/09 10:47:38;;;;;;;3.35;2.13;;;;;;;1.10;97.39;99514.81;5116491;28;20090;-57
2022/03/09 10:50:16;;;;;;;4.03;2.30;;;;;;;1.23;94.73;99521.38;5109804;28;20079;-60
2022/03/09 10:52:45;;;;;;;6.03;2.58;;;;;;;0.56;96.88;99522.31;5094220;28;20051;-58
2022/03/09 10:55:27;;;;;;;8.02;2.85;;;;;;;0.97;99.96;99505.59;5122871;28;20501;-59
2022/03/09 10:58:09;;;;;;;1.90;1.58;;;;;;;1.22;96.58;99512.47;5119792;27;20138;-59
2022/03/09 11:00:37;;;;;;;3.28;2.38;;;;;;;1.23;97.27;99508.69;5106972;28;20410;-60
2022/03/09 11:03:08;;;;;;;2.67;2.15;;;;;;;1.42;94.31;99527.56;5110767;28;20151;-59
2022/03/09 11:05:35;;;;;;;2.97;1.92;;;;;;;1.30;89.91;99522.63;5124135;27;20043;-60
2022/03/09 11:08:04;;;;;;;3.30;1.90;;;;;;;1.10;90.10;99526.44;5128348;27;20054;-61
2022/03/09 11:10:30;;;;;;;2.50;1.95;;;;;;;1.30;91.06;99522.63;5128823;28;20374;-59
2022/03/09 11:12:58;;;;;;;3.00;2.20;;;;;;;1.17;91.76;99507.19;5109418;27;20078;-58
2022/03/09 11:15:24;;;;;;;4.72;2.08;;;;;;;1.26;94.08;99508.09;5122346;27;20090;-59
2022/03/09 11:17:51;;;;;;;10.77;2.55;;;;;;;1.28;93.12;99510.50;5128943;28;20100;-59
2022/03/09 11:20:18;;;;;;;2.97;2.33;;;;;;;1.30;97.04;99503.72;5127842;27;20043;-57
2022/03/09 11:22:44;;;;;;;3.20;2.38;;;;;;;1.34;94.65;99502.03;5115946;27;20436;-59
2022/03/09 11:25:12;;;;;;;18.13;3.00;;;;;;;1.45;95.87;99512.66;5135705;27;20046;-60
2022/03/09 11:27:44;;;;;;;3.85;2.30;;;;;;;1.40;93.68;99521.66;5137327;27;20057;-59